createdAt,value
2023-02-11T00:00:17.951Z,52.35
2023-02-11T00:01:34.440Z,55.08
2023-02-11T00:02:37.252Z,49.80
2023-02-11T00:03:40.080Z,50.42
2023-02-11T00:04:42.764Z,52.28
2023-02-11T00:05:45.554Z,45.85
2023-02-11T00:06:48.547Z,46.15
2023-02-11T00:07:51.528Z,45.70
2023-02-11T00:08:55.312Z,49.17
2023-02-11T00:09:58.026Z,46.45
2023-02-11T00:11:00.772Z,48.15
2023-02-11T00:12:03.962Z,49.47
2023-02-11T00:13:06.664Z,49.70
2023-02-11T00:14:11.723Z,44.47
2023-02-11T00:15:14.433Z,48.53
2023-02-11T00:16:19.953Z,46.58
2023-02-11T00:17:23.079Z,60.65
2023-02-11T00:18:26.499Z,53.80
2023-02-11T00:19:29.276Z,61.08
2023-02-11T00:20:31.948Z,58.13
2023-02-11T00:21:36.105Z,57.50
2023-02-11T00:22:39.069Z,50.90
2023-02-11T00:23:42.316Z,54.10
2023-02-11T00:24:45.230Z,47.97
2023-02-11T00:25:47.961Z,51.63
2023-02-11T00:26:50.827Z,48.80
2023-02-11T00:27:53.904Z,51.00
2023-02-11T00:28:57.308Z,53.20
2023-02-11T00:30:02.311Z,57.38
2023-02-11T00:31:06.300Z,53.72
2023-02-11T00:32:10.555Z,56.90
2023-02-11T00:33:13.517Z,52.25
2023-02-11T00:34:16.430Z,49.20
2023-02-11T00:35:19.122Z,53.58
2023-02-11T00:36:26.796Z,50.42
2023-02-11T00:37:29.871Z,50.10
2023-02-11T00:38:32.955Z,55.38
2023-02-11T00:39:37.169Z,51.87
2023-02-11T00:40:39.863Z,53.03
2023-02-11T00:41:42.526Z,52.72
2023-02-11T00:42:45.254Z,59.95
2023-02-11T00:43:49.844Z,58.67
2023-02-11T00:44:53.470Z,53.03
2023-02-11T00:45:56.339Z,53.83
2023-02-11T00:46:59.626Z,51.22
2023-02-11T00:48:02.433Z,55.30
2023-02-11T00:49:06.022Z,53.47
2023-02-11T00:50:09.007Z,52.27
2023-02-11T00:51:12.062Z,49.22
2023-02-11T00:52:14.815Z,49.20
2023-02-11T00:53:18.390Z,52.17
2023-02-11T00:54:21.479Z,54.85
2023-02-11T00:55:24.202Z,56.55
2023-02-11T00:56:27.084Z,62.38
2023-02-11T00:57:31.853Z,51.83
2023-02-11T00:58:35.221Z,54.80
2023-02-11T00:59:38.898Z,49.72
2023-02-11T01:00:41.722Z,51.30
2023-02-11T01:01:44.642Z,55.70
2023-02-11T01:02:47.500Z,52.60
2023-02-11T01:03:50.361Z,54.53
2023-02-11T01:04:54.267Z,57.15
2023-02-11T01:05:57.038Z,56.37
2023-02-11T01:06:59.935Z,51.08
2023-02-11T01:08:03.082Z,54.38
2023-02-11T01:09:06.069Z,54.25
2023-02-11T01:10:10.986Z,59.92
2023-02-11T01:11:17.794Z,59.97
2023-02-11T01:12:21.138Z,56.92
2023-02-11T01:13:24.852Z,59.28
2023-02-11T01:14:29.704Z,58.28
2023-02-11T01:15:33.256Z,55.05
2023-02-11T01:16:36.422Z,53.17
2023-02-11T01:17:39.122Z,49.78
2023-02-11T01:18:44.411Z,58.15
2023-02-11T01:19:47.663Z,56.75
2023-02-11T01:20:53.987Z,55.58
2023-02-11T01:21:56.678Z,48.13
2023-02-11T01:22:59.463Z,53.25
2023-02-11T01:24:02.657Z,57.20
2023-02-11T01:25:06.795Z,54.03
2023-02-11T01:26:11.601Z,52.70
2023-02-11T01:27:14.520Z,53.65
2023-02-11T01:28:20.112Z,54.42
2023-02-11T01:29:22.961Z,54.42
2023-02-11T01:30:25.652Z,52.78
2023-02-11T01:31:30.254Z,47.67
2023-02-11T01:32:33.756Z,54.00
2023-02-11T01:33:36.483Z,51.85
2023-02-11T01:34:41.608Z,54.50
2023-02-11T01:35:44.784Z,47.83
2023-02-11T01:36:47.842Z,55.22
2023-02-11T01:37:50.858Z,49.97
2023-02-11T01:38:54.194Z,50.72
2023-02-11T01:39:57.134Z,45.90
2023-02-11T01:41:06.241Z,47.08
2023-02-11T01:42:16.825Z,49.30
2023-02-11T01:43:20.211Z,49.57
2023-02-11T01:44:35.924Z,52.33
2023-02-11T01:45:44.678Z,50.12
2023-02-11T01:46:47.638Z,53.78
2023-02-11T01:47:51.414Z,52.10
2023-02-11T01:49:12.868Z,51.55
2023-02-11T01:50:16.122Z,50.47
2023-02-11T01:51:22.318Z,43.87
2023-02-11T01:52:39.373Z,47.05
2023-02-11T01:54:03.380Z,53.63
2023-02-11T01:55:29.469Z,49.63
2023-02-11T01:56:52.168Z,49.85
2023-02-11T01:57:59.269Z,48.85
2023-02-11T01:59:11.574Z,49.05
2023-02-11T02:00:24.348Z,47.90
2023-02-11T02:01:30.412Z,54.70
2023-02-11T02:02:43.934Z,50.92
2023-02-11T02:03:51.938Z,49.97
2023-02-11T02:05:02.751Z,48.33
2023-02-11T02:06:17.143Z,50.92
2023-02-11T02:07:36.833Z,44.47
2023-02-11T02:08:55.601Z,50.65
2023-02-11T02:10:06.081Z,47.62
2023-02-11T02:11:09.117Z,45.40
2023-02-11T02:12:12.968Z,49.38
2023-02-11T02:13:16.122Z,50.58
2023-02-11T02:14:19.311Z,48.08
2023-02-11T02:15:31.845Z,46.80
2023-02-11T02:16:36.891Z,50.95
2023-02-11T02:17:52.624Z,43.70
2023-02-11T02:19:36.561Z,50.47
2023-02-11T02:21:06.026Z,45.10
2023-02-11T02:22:57.197Z,45.72
2023-02-11T02:24:08.859Z,45.28
2023-02-11T02:25:33.408Z,47.28
2023-02-11T02:27:10.161Z,53.70
2023-02-11T02:28:18.820Z,45.33
2023-02-11T02:29:42.073Z,51.00
2023-02-11T02:31:06.732Z,46.80
2023-02-11T02:32:37.876Z,48.50
2023-02-11T02:33:40.708Z,47.57
2023-02-11T02:35:07.619Z,49.85
2023-02-11T02:36:16.048Z,50.10
2023-02-11T02:37:31.479Z,46.92
2023-02-11T02:38:49.519Z,49.08
2023-02-11T02:39:52.216Z,50.25
2023-02-11T02:40:59.068Z,57.28
2023-02-11T02:42:03.187Z,55.00
2023-02-11T02:43:09.995Z,46.90
2023-02-11T02:44:13.138Z,51.63
2023-02-11T02:45:15.964Z,48.50
2023-02-11T02:46:22.290Z,56.25
2023-02-11T02:47:25.283Z,50.83
2023-02-11T02:48:30.174Z,52.40
2023-02-11T02:49:33.232Z,52.85
2023-02-11T02:50:38.088Z,59.13
2023-02-11T02:52:18.141Z,54.47
2023-02-11T02:53:49.138Z,49.97
2023-02-11T02:54:57.718Z,51.80
2023-02-11T02:56:23.578Z,49.80
2023-02-11T02:57:29.526Z,51.10
2023-02-11T02:58:48.369Z,53.05
2023-02-11T03:00:02.962Z,53.87
2023-02-11T03:01:27.607Z,43.33
2023-02-11T03:02:56.925Z,48.75
2023-02-11T03:04:31.880Z,47.13
2023-02-11T03:05:43.769Z,45.40
2023-02-11T03:06:57.843Z,46.63
2023-02-11T03:08:00.791Z,45.92
2023-02-11T03:09:12.933Z,43.10
2023-02-11T03:10:33.358Z,44.17
2023-02-11T03:11:37.814Z,50.28
2023-02-11T03:12:43.245Z,44.15
2023-02-11T03:13:48.639Z,52.90
2023-02-11T03:14:52.273Z,48.53
2023-02-11T03:15:58.770Z,65.75
2023-02-11T03:17:04.829Z,90.80
2023-02-11T03:18:11.963Z,87.03
2023-02-11T03:19:26.619Z,67.57
2023-02-11T03:20:33.246Z,83.90
2023-02-11T03:21:38.962Z,70.73
2023-02-11T03:22:53.008Z,65.72
2023-02-11T03:24:06.027Z,72.45
2023-02-11T03:25:09.712Z,70.62
2023-02-11T03:26:34.560Z,65.62
2023-02-11T03:28:16.327Z,49.20
2023-02-11T03:29:32.336Z,48.42
2023-02-11T03:31:21.848Z,52.13
2023-02-11T03:32:46.133Z,55.85
2023-02-11T03:33:58.107Z,57.50
2023-02-11T03:35:12.350Z,49.07
2023-02-11T03:36:21.950Z,60.15
2023-02-11T03:37:28.622Z,50.88
2023-02-11T03:38:36.409Z,52.10
2023-02-11T03:39:50.880Z,48.80
2023-02-11T03:40:55.737Z,47.28
2023-02-11T03:42:00.869Z,50.55
2023-02-11T03:43:13.986Z,51.42
2023-02-11T03:44:17.508Z,48.90
2023-02-11T03:45:23.012Z,53.97
2023-02-11T03:46:37.408Z,49.70
2023-02-11T03:47:45.754Z,47.95
2023-02-11T03:48:52.650Z,47.90
2023-02-11T03:49:58.123Z,47.67
2023-02-11T03:51:05.619Z,53.75
2023-02-11T03:52:11.389Z,46.83
2023-02-11T03:53:15.348Z,51.08
2023-02-11T03:54:24.377Z,47.20
2023-02-11T03:55:29.461Z,49.03
2023-02-11T03:56:39.720Z,52.67
2023-02-11T03:57:42.855Z,52.37
2023-02-11T03:58:46.151Z,52.72
2023-02-11T03:59:57.115Z,53.28
2023-02-11T04:01:02.508Z,53.28
2023-02-11T04:02:05.585Z,58.95
2023-02-11T04:03:10.603Z,68.32
2023-02-11T04:04:13.892Z,66.20
2023-02-11T04:05:16.868Z,97.55
2023-02-11T04:06:19.644Z,107.43
2023-02-11T04:07:22.711Z,71.97
2023-02-11T04:08:25.414Z,61.80
2023-02-11T04:09:28.088Z,53.63
2023-02-11T04:10:31.347Z,55.30
2023-02-11T04:11:33.999Z,51.10
2023-02-11T04:12:37.069Z,50.20
2023-02-11T04:13:39.787Z,48.80
2023-02-11T04:14:42.549Z,54.08
2023-02-11T04:15:47.816Z,49.15
2023-02-11T04:16:51.405Z,57.03
2023-02-11T04:17:54.671Z,57.38
2023-02-11T04:18:58.214Z,67.63
2023-02-11T04:20:01.125Z,66.18
2023-02-11T04:21:03.965Z,63.10
2023-02-11T04:22:06.950Z,64.78
2023-02-11T04:23:10.348Z,69.22
2023-02-11T04:24:13.097Z,64.75
2023-02-11T04:25:15.827Z,56.05
2023-02-11T04:26:18.522Z,53.60
2023-02-11T04:27:21.240Z,53.22
2023-02-11T04:28:24.567Z,55.55
2023-02-11T04:29:28.316Z,52.63
2023-02-11T04:30:31.113Z,50.45
2023-02-11T04:31:33.809Z,49.95
2023-02-11T04:32:36.536Z,51.45
2023-02-11T04:33:39.584Z,50.55
2023-02-11T04:34:42.315Z,49.45
2023-02-11T04:35:45.384Z,50.90
2023-02-11T04:36:48.131Z,52.78
2023-02-11T04:37:50.939Z,51.35
2023-02-11T04:38:53.886Z,54.90
2023-02-11T04:39:56.571Z,60.27
2023-02-11T04:41:00.617Z,59.15
2023-02-11T04:42:03.554Z,72.57
2023-02-11T04:43:06.720Z,59.60
2023-02-11T04:44:09.719Z,58.65
2023-02-11T04:45:12.687Z,77.37
2023-02-11T04:46:15.466Z,89.20
2023-02-11T04:47:18.445Z,82.95
2023-02-11T04:48:24.976Z,67.15
2023-02-11T04:49:28.048Z,63.83
2023-02-11T04:50:30.852Z,52.07
2023-02-11T04:51:33.599Z,52.88
2023-02-11T04:52:36.288Z,54.17
2023-02-11T04:53:39.016Z,51.42
2023-02-11T04:54:41.990Z,51.03
2023-02-11T04:55:44.712Z,51.83
2023-02-11T04:56:47.695Z,56.15
2023-02-11T04:57:50.414Z,53.60
2023-02-11T04:58:53.186Z,49.38
2023-02-11T04:59:56.443Z,53.60
2023-02-11T05:01:09.721Z,55.17
2023-02-11T05:02:12.468Z,52.40
2023-02-11T05:03:15.407Z,61.35
2023-02-11T05:04:18.355Z,101.25
2023-02-11T05:05:21.465Z,123.05
2023-02-11T05:06:24.538Z,153.43
2023-02-11T05:07:28.363Z,129.70
2023-02-11T05:08:31.458Z,90.47
2023-02-11T05:09:34.210Z,70.75
2023-02-11T05:10:37.611Z,67.75
2023-02-11T05:11:40.327Z,62.03
2023-02-11T05:12:43.044Z,71.28
2023-02-11T05:13:46.464Z,54.20
2023-02-11T05:14:49.107Z,59.53
2023-02-11T05:15:52.458Z,69.15
2023-02-11T05:16:55.348Z,55.35
2023-02-11T05:17:58.111Z,56.92
2023-02-11T05:19:00.905Z,65.03
2023-02-11T05:20:03.828Z,67.20
2023-02-11T05:21:09.208Z,62.67
2023-02-11T05:22:11.864Z,58.50
2023-02-11T05:23:14.624Z,54.83
2023-02-11T05:24:17.293Z,61.28
2023-02-11T05:25:20.809Z,58.20
2023-02-11T05:26:23.832Z,59.70
2023-02-11T05:27:26.556Z,60.45
2023-02-11T05:28:29.509Z,56.17
2023-02-11T05:29:32.324Z,58.55
2023-02-11T05:30:35.306Z,59.00
2023-02-11T05:31:38.416Z,59.47
2023-02-11T05:32:41.162Z,118.80
2023-02-11T05:33:44.858Z,98.97
2023-02-11T05:34:47.563Z,68.93
2023-02-11T05:35:51.112Z,59.75
2023-02-11T05:36:54.397Z,51.67
2023-02-11T05:37:57.188Z,57.08
2023-02-11T05:38:59.921Z,60.85
2023-02-11T05:40:02.639Z,60.00
2023-02-11T05:41:06.675Z,59.35
2023-02-11T05:42:09.912Z,55.25
2023-02-11T05:43:12.704Z,57.50
2023-02-11T05:44:15.429Z,64.82
2023-02-11T05:45:18.286Z,67.15
2023-02-11T05:46:21.328Z,96.95
2023-02-11T05:47:24.386Z,91.30
2023-02-11T05:48:27.228Z,102.60
2023-02-11T05:49:30.130Z,77.35
2023-02-11T05:50:33.155Z,67.82
2023-02-11T05:51:35.941Z,66.53
2023-02-11T05:52:38.914Z,80.75
2023-02-11T05:53:42.294Z,94.27
2023-02-11T05:54:45.109Z,80.95
2023-02-11T05:55:48.072Z,66.07
2023-02-11T05:56:50.957Z,66.70
2023-02-11T05:57:54.299Z,73.15
2023-02-11T05:58:59.578Z,104.60
2023-02-11T06:00:03.502Z,131.57
2023-02-11T06:01:14.939Z,181.40
2023-02-11T06:02:18.022Z,219.40
2023-02-11T06:03:21.106Z,212.02
2023-02-11T06:04:23.974Z,134.03
2023-02-11T06:05:26.881Z,155.02
2023-02-11T06:06:29.572Z,120.62
2023-02-11T06:07:32.879Z,78.10
2023-02-11T06:08:38.131Z,68.93
2023-02-11T06:09:41.834Z,62.62
2023-02-11T06:10:45.746Z,62.10
2023-02-11T06:11:51.035Z,59.25
2023-02-11T06:12:54.067Z,53.20
2023-02-11T06:13:56.824Z,61.35
2023-02-11T06:14:59.751Z,58.00
2023-02-11T06:16:03.338Z,61.45
2023-02-11T06:17:06.212Z,67.55
2023-02-11T06:18:09.758Z,67.93
2023-02-11T06:19:12.984Z,78.20
2023-02-11T06:20:16.193Z,77.50
2023-02-11T06:21:18.972Z,87.90
2023-02-11T06:22:21.706Z,88.15
2023-02-11T06:23:24.710Z,88.07
2023-02-11T06:24:48.159Z,85.53
2023-02-11T06:25:51.053Z,111.60
2023-02-11T06:26:53.934Z,74.93
2023-02-11T06:27:57.118Z,70.10
2023-02-11T06:29:01.121Z,83.70
2023-02-11T06:30:05.631Z,79.50
2023-02-11T06:31:09.842Z,90.82
2023-02-11T06:32:33.572Z,93.25
2023-02-11T06:33:36.151Z,98.18
2023-02-11T06:34:39.419Z,82.65
2023-02-11T06:35:42.124Z,84.95
2023-02-11T06:36:45.387Z,80.90
2023-02-11T06:37:49.726Z,77.85
2023-02-11T06:38:52.673Z,72.93
2023-02-11T06:39:55.672Z,64.70
2023-02-11T06:40:58.352Z,65.22
2023-02-11T06:42:01.131Z,69.93
2023-02-11T06:43:03.814Z,66.85
2023-02-11T06:44:07.083Z,70.75
2023-02-11T06:45:11.123Z,63.47
2023-02-11T06:46:14.202Z,54.92
2023-02-11T06:47:17.009Z,58.87
2023-02-11T06:48:20.245Z,66.80
2023-02-11T06:49:22.995Z,122.72
2023-02-11T06:50:26.098Z,169.27
2023-02-11T06:51:29.339Z,81.45
2023-02-11T06:52:32.704Z,72.85
2023-02-11T06:53:37.544Z,81.85
2023-02-11T06:54:40.230Z,67.15
2023-02-11T06:55:43.297Z,58.78
2023-02-11T06:56:45.988Z,69.07
2023-02-11T06:57:48.734Z,55.50
2023-02-11T06:58:58.069Z,70.37
2023-02-11T07:00:00.787Z,134.50
2023-02-11T07:01:09.634Z,115.93
2023-02-11T07:02:12.658Z,106.97
2023-02-11T07:03:15.482Z,166.57
2023-02-11T07:04:19.478Z,83.40
2023-02-11T07:05:22.152Z,132.05
2023-02-11T07:06:28.099Z,80.45
2023-02-11T07:07:34.091Z,143.82
2023-02-11T07:08:38.139Z,128.07
2023-02-11T07:09:41.137Z,127.62
2023-02-11T07:10:43.915Z,63.40
2023-02-11T07:11:47.194Z,75.57
2023-02-11T07:12:49.933Z,77.03
2023-02-11T07:13:54.897Z,74.55
2023-02-11T07:14:57.886Z,50.03
2023-02-11T07:16:05.696Z,102.95
2023-02-11T07:17:08.729Z,84.75
2023-02-11T07:18:14.325Z,83.00
2023-02-11T07:19:17.610Z,62.63
2023-02-11T07:20:20.526Z,74.45
2023-02-11T07:21:24.422Z,59.53
2023-02-11T07:22:27.620Z,66.50
2023-02-11T07:23:30.742Z,69.80
2023-02-11T07:24:33.475Z,69.15
2023-02-11T07:25:36.688Z,68.93
2023-02-11T07:26:40.314Z,56.95
2023-02-11T07:27:43.994Z,54.88
2023-02-11T07:28:46.862Z,59.75
2023-02-11T07:29:49.605Z,60.07
2023-02-11T07:30:52.345Z,57.50
2023-02-11T07:31:55.146Z,66.70
2023-02-11T07:32:58.195Z,69.80
2023-02-11T07:34:02.148Z,66.10
2023-02-11T07:35:07.931Z,66.82
2023-02-11T07:36:11.526Z,66.00
2023-02-11T07:37:14.446Z,66.07
2023-02-11T07:38:17.435Z,62.97
2023-02-11T07:39:21.970Z,66.65
2023-02-11T07:40:24.985Z,58.37
2023-02-11T07:41:28.382Z,55.45
2023-02-11T07:42:31.120Z,61.97
2023-02-11T07:43:35.478Z,66.25
2023-02-11T07:44:38.160Z,58.70
2023-02-11T07:45:43.582Z,61.60
2023-02-11T07:46:47.934Z,58.83
2023-02-11T07:47:53.498Z,62.90
2023-02-11T07:48:56.686Z,62.58
2023-02-11T07:49:59.330Z,64.87
2023-02-11T07:51:29.564Z,57.40
2023-02-11T07:52:32.537Z,59.63
2023-02-11T07:53:35.594Z,63.13
2023-02-11T07:54:39.176Z,66.15
2023-02-11T07:55:43.110Z,58.87
2023-02-11T07:56:46.149Z,59.03
2023-02-11T07:57:49.173Z,62.45
2023-02-11T07:58:52.059Z,55.97
2023-02-11T07:59:55.053Z,60.85
2023-02-11T08:01:05.976Z,62.60
2023-02-11T08:02:09.661Z,58.60
2023-02-11T08:03:12.706Z,58.85
2023-02-11T08:04:15.495Z,64.80
2023-02-11T08:05:18.492Z,69.70
2023-02-11T08:06:23.840Z,67.47
2023-02-11T08:07:29.328Z,59.05
2023-02-11T08:08:32.191Z,68.82
2023-02-11T08:09:34.883Z,65.40
2023-02-11T08:10:37.547Z,61.90
2023-02-11T08:11:40.977Z,69.20
2023-02-11T08:12:44.576Z,60.83
2023-02-11T08:13:47.987Z,70.28
2023-02-11T08:14:51.380Z,72.82
2023-02-11T08:15:57.794Z,71.20
2023-02-11T08:17:00.591Z,67.00
2023-02-11T08:18:03.737Z,57.70
2023-02-11T08:19:15.080Z,63.80
2023-02-11T08:20:17.902Z,63.85
2023-02-11T08:21:21.372Z,62.20
2023-02-11T08:22:24.179Z,61.28
2023-02-11T08:23:27.152Z,62.90
2023-02-11T08:24:29.917Z,66.10
2023-02-11T08:25:33.166Z,65.72
2023-02-11T08:26:36.189Z,64.78
2023-02-11T08:27:38.953Z,65.05
2023-02-11T08:28:44.822Z,65.82
2023-02-11T08:29:47.726Z,64.93
2023-02-11T08:30:50.883Z,67.12
2023-02-11T08:31:53.899Z,65.18
2023-02-11T08:32:56.811Z,63.17
2023-02-11T08:34:02.330Z,63.23
2023-02-11T08:35:08.750Z,60.58
2023-02-11T08:36:14.382Z,68.53
2023-02-11T08:37:17.819Z,77.00
2023-02-11T08:38:20.567Z,69.53
2023-02-11T08:39:23.653Z,73.62
2023-02-11T08:40:26.645Z,70.30
2023-02-11T08:41:29.707Z,66.53
2023-02-11T08:42:32.327Z,73.10
2023-02-11T08:43:35.744Z,70.70
2023-02-11T08:44:38.821Z,71.50
2023-02-11T08:45:41.608Z,68.97
2023-02-11T08:46:44.382Z,70.60
2023-02-11T08:47:47.061Z,74.82
2023-02-11T08:48:50.624Z,79.20
2023-02-11T08:49:53.661Z,78.30
2023-02-11T08:50:56.735Z,71.22
2023-02-11T08:52:03.829Z,69.87
2023-02-11T08:53:06.741Z,68.93
2023-02-11T08:54:09.875Z,72.25
2023-02-11T08:55:12.863Z,68.30
2023-02-11T08:56:16.947Z,72.30
2023-02-11T08:57:19.752Z,73.25
2023-02-11T08:58:22.620Z,68.53
2023-02-11T08:59:25.492Z,63.60
2023-02-11T09:00:28.570Z,67.62
2023-02-11T09:01:32.090Z,67.32
2023-02-11T09:02:35.088Z,84.47
2023-02-11T09:03:38.039Z,64.05
2023-02-11T09:04:41.172Z,65.12
2023-02-11T09:05:45.848Z,56.93
2023-02-11T09:06:49.134Z,71.03
2023-02-11T09:07:51.927Z,69.47
2023-02-11T09:08:56.847Z,69.65
2023-02-11T09:09:59.556Z,67.28
2023-02-11T09:11:03.854Z,71.55
2023-02-11T09:12:06.669Z,68.03
2023-02-11T09:13:09.966Z,69.60
2023-02-11T09:14:21.400Z,73.80
2023-02-11T09:15:24.154Z,64.15
2023-02-11T09:16:30.865Z,61.93
2023-02-11T09:17:33.640Z,60.00
2023-02-11T09:18:36.405Z,66.12
2023-02-11T09:19:39.104Z,73.40
2023-02-11T09:20:41.974Z,68.93
2023-02-11T09:21:45.177Z,65.93
2023-02-11T09:22:48.326Z,191.50
2023-02-11T09:23:51.376Z,75.90
2023-02-11T09:24:55.141Z,140.12
2023-02-11T09:25:57.804Z,71.62
2023-02-11T09:27:00.926Z,67.10
2023-02-11T09:28:03.818Z,85.82
2023-02-11T09:29:06.583Z,74.80
2023-02-11T09:30:10.211Z,62.92
2023-02-11T09:31:16.192Z,73.20
2023-02-11T09:32:19.246Z,68.87
2023-02-11T09:33:22.052Z,75.90
2023-02-11T09:34:24.875Z,68.62
2023-02-11T09:35:27.811Z,62.97
2023-02-11T09:36:33.555Z,68.90
2023-02-11T09:37:37.495Z,68.60
2023-02-11T09:38:40.866Z,60.85
2023-02-11T09:39:46.241Z,65.87
2023-02-11T09:40:49.359Z,64.95
2023-02-11T09:42:24.821Z,69.68
2023-02-11T09:43:36.856Z,66.15
2023-02-11T09:44:40.042Z,73.87
2023-02-11T09:45:43.147Z,67.97
2023-02-11T09:46:53.335Z,79.68
2023-02-11T09:48:00.859Z,130.50
2023-02-11T09:49:05.151Z,113.03
2023-02-11T09:50:23.140Z,96.35
2023-02-11T09:51:47.405Z,67.57
2023-02-11T09:53:02.265Z,62.67
2023-02-11T09:54:15.607Z,63.90
2023-02-11T09:55:23.252Z,62.97
2023-02-11T09:56:28.370Z,62.47
2023-02-11T09:57:35.947Z,70.85
2023-02-11T09:58:41.213Z,83.12
2023-02-11T09:59:44.970Z,74.10
2023-02-11T10:01:11.621Z,67.50
2023-02-11T10:02:27.774Z,67.50
2023-02-11T10:03:48.836Z,68.32
2023-02-11T10:05:10.093Z,69.28
2023-02-11T10:06:29.310Z,68.05
2023-02-11T10:07:41.576Z,71.35
2023-02-11T10:09:09.658Z,68.50
2023-02-11T10:10:39.480Z,72.30
2023-02-11T10:11:42.304Z,65.93
2023-02-11T10:13:03.811Z,71.25
2023-02-11T10:14:24.390Z,63.57
2023-02-11T10:15:50.574Z,69.60
2023-02-11T10:17:18.059Z,70.62
2023-02-11T10:18:42.891Z,62.22
2023-02-11T10:20:01.036Z,69.22
2023-02-11T10:21:20.703Z,75.07
2023-02-11T10:22:31.060Z,64.97
2023-02-11T10:23:38.290Z,70.53
2023-02-11T10:24:42.876Z,78.28
2023-02-11T10:25:50.809Z,61.63
2023-02-11T10:26:53.774Z,64.03
2023-02-11T10:27:59.991Z,66.60
2023-02-11T10:29:31.813Z,71.97
2023-02-11T10:30:41.071Z,70.03
2023-02-11T10:31:46.879Z,70.65
2023-02-11T10:33:07.752Z,71.93
2023-02-11T10:34:13.005Z,59.85
2023-02-11T10:35:18.435Z,69.90
2023-02-11T10:36:24.188Z,60.83
2023-02-11T10:37:27.038Z,75.75
2023-02-11T10:38:30.004Z,68.57
2023-02-11T10:39:33.165Z,69.93
2023-02-11T10:40:35.961Z,70.35
2023-02-11T10:42:02.689Z,71.12
2023-02-11T10:43:10.144Z,65.80
2023-02-11T10:44:28.772Z,68.72
2023-02-11T10:45:38.560Z,59.90
2023-02-11T10:46:42.488Z,63.75
2023-02-11T10:47:45.264Z,68.47
2023-02-11T10:48:52.463Z,68.95
2023-02-11T10:49:55.175Z,69.63
2023-02-11T10:51:14.725Z,69.60
2023-02-11T10:52:26.286Z,65.70
2023-02-11T10:53:29.021Z,60.72
2023-02-11T10:54:31.701Z,62.28
2023-02-11T10:55:36.539Z,64.43
2023-02-11T10:56:46.704Z,67.75
2023-02-11T10:57:54.614Z,83.55
2023-02-11T10:59:18.575Z,95.10
2023-02-11T11:00:39.383Z,66.50
2023-02-11T11:01:54.320Z,63.40
2023-02-11T11:03:00.923Z,62.15
2023-02-11T11:04:04.270Z,65.20
2023-02-11T11:05:20.078Z,105.28
2023-02-11T11:06:34.533Z,124.82
2023-02-11T11:07:37.812Z,113.07
2023-02-11T11:08:49.325Z,70.03
2023-02-11T11:09:59.744Z,67.22
2023-02-11T11:11:05.987Z,68.72
2023-02-11T11:12:50.485Z,78.37
2023-02-11T11:13:53.502Z,68.47
2023-02-11T11:15:18.840Z,66.47
2023-02-11T11:16:26.189Z,64.57
2023-02-11T11:17:29.424Z,69.00
2023-02-11T11:18:32.195Z,74.35
2023-02-11T11:19:36.851Z,66.32
2023-02-11T11:20:45.127Z,71.15
2023-02-11T11:21:50.941Z,81.72
2023-02-11T11:23:16.534Z,70.53
2023-02-11T11:24:44.423Z,66.62
2023-02-11T11:26:00.191Z,65.30
2023-02-11T11:27:05.329Z,69.82
2023-02-11T11:28:26.694Z,67.60
2023-02-11T11:29:38.401Z,61.58
2023-02-11T11:30:43.421Z,66.22
2023-02-11T11:31:54.941Z,62.22
2023-02-11T11:32:59.007Z,64.35
2023-02-11T11:34:32.501Z,62.72
2023-02-11T11:35:35.453Z,58.63
2023-02-11T11:36:46.104Z,62.10
2023-02-11T11:38:02.271Z,62.43
2023-02-11T11:39:21.968Z,67.60
2023-02-11T11:40:36.830Z,67.95
2023-02-11T11:41:50.262Z,68.60
2023-02-11T11:43:12.598Z,69.10
2023-02-11T11:44:31.041Z,64.75
2023-02-11T11:45:33.910Z,65.97
2023-02-11T11:46:41.316Z,67.62
2023-02-11T11:47:56.268Z,64.53
2023-02-11T11:49:11.768Z,62.25
2023-02-11T11:50:21.249Z,61.10
2023-02-11T11:51:24.847Z,69.87
2023-02-11T11:52:38.524Z,67.93
2023-02-11T11:53:44.525Z,68.47
2023-02-11T11:54:59.055Z,70.30
2023-02-11T11:56:22.303Z,55.55
2023-02-11T11:57:28.791Z,63.00
2023-02-11T11:58:32.855Z,65.40
2023-02-11T11:59:41.712Z,52.62
2023-02-11T12:01:02.040Z,65.72
2023-02-11T12:02:16.561Z,76.30
2023-02-11T12:03:34.443Z,72.47
2023-02-11T12:04:58.904Z,61.42
2023-02-11T12:06:07.201Z,60.65
2023-02-11T12:07:31.000Z,66.90
2023-02-11T12:08:49.605Z,62.25
2023-02-11T12:10:14.098Z,66.95
2023-02-11T12:11:35.263Z,71.05
2023-02-11T12:13:23.698Z,68.22
2023-02-11T12:14:47.314Z,65.85
2023-02-11T12:16:20.913Z,49.63
2023-02-11T12:17:43.687Z,67.17
2023-02-11T12:19:00.539Z,68.07
2023-02-11T12:20:23.786Z,61.92
2023-02-11T12:21:38.300Z,58.22
2023-02-11T12:23:15.965Z,59.90
2023-02-11T12:26:32.764Z,58.10
2023-02-11T12:27:54.901Z,61.08
2023-02-11T12:28:58.080Z,62.03
2023-02-11T12:30:20.651Z,66.20
2023-02-11T12:31:47.311Z,54.92
2023-02-11T12:33:22.689Z,58.63
2023-02-11T12:34:29.812Z,63.30
2023-02-11T12:35:40.550Z,74.45
2023-02-11T12:36:54.885Z,72.60
2023-02-11T12:38:19.040Z,80.82
2023-02-11T12:39:34.184Z,60.88
2023-02-11T12:40:49.672Z,64.75
2023-02-11T12:42:14.785Z,58.28
2023-02-11T12:43:20.599Z,58.93
2023-02-11T12:45:12.665Z,53.57
2023-02-11T12:46:46.481Z,67.53
2023-02-11T12:48:23.108Z,65.22
2023-02-11T12:49:54.388Z,67.50
2023-02-11T12:51:37.755Z,60.10
2023-02-11T12:53:29.760Z,56.72
2023-02-11T12:57:28.832Z,61.70
2023-02-11T12:58:45.022Z,48.67
2023-02-11T13:00:04.505Z,57.33
2023-02-11T13:03:00.989Z,53.25
2023-02-11T13:04:24.812Z,54.42
2023-02-11T13:05:37.765Z,55.78
2023-02-11T13:07:26.264Z,53.70
2023-02-11T13:11:26.026Z,57.00
2023-02-11T13:12:50.020Z,50.58
2023-02-11T13:13:55.978Z,68.43
2023-02-11T13:15:06.361Z,56.27
2023-02-11T13:20:43.745Z,71.20
2023-02-11T13:22:02.682Z,59.08
2023-02-11T13:23:19.027Z,56.88
2023-02-11T13:24:33.734Z,57.83
2023-02-11T13:30:09.626Z,49.15
2023-02-11T13:31:16.940Z,53.83
2023-02-11T13:32:19.922Z,53.70
2023-02-11T13:35:41.307Z,47.90
2023-02-11T13:36:55.564Z,69.93
2023-02-11T13:38:00.534Z,64.00
2023-02-11T13:39:06.861Z,52.35
2023-02-11T13:40:19.356Z,70.22
2023-02-11T13:41:33.324Z,58.72
2023-02-11T13:42:48.742Z,58.75
2023-02-11T13:44:19.323Z,57.80
2023-02-11T13:45:39.889Z,53.00
2023-02-11T13:47:00.208Z,53.87
2023-02-11T13:48:08.286Z,53.03
2023-02-11T13:49:22.638Z,46.50
2023-02-11T13:50:27.230Z,59.50
2023-02-11T13:51:40.759Z,52.65
2023-02-11T13:52:47.398Z,53.92
2023-02-11T13:53:57.102Z,52.97
2023-02-11T13:55:15.529Z,54.40
2023-02-11T13:56:30.778Z,50.53
2023-02-11T13:57:36.281Z,52.97
2023-02-11T13:58:50.827Z,53.38
2023-02-11T14:00:00.763Z,52.20
2023-02-11T14:01:04.586Z,50.53
2023-02-11T14:04:51.036Z,63.60
2023-02-11T14:06:28.463Z,52.55
2023-02-11T14:07:53.249Z,84.35
2023-02-11T14:12:34.597Z,70.93
2023-02-11T14:13:47.327Z,65.95
2023-02-11T14:15:03.742Z,61.50
2023-02-11T14:16:17.104Z,65.45
2023-02-11T14:17:32.771Z,54.25
2023-02-11T14:18:39.673Z,63.03
2023-02-11T14:19:49.945Z,53.90
2023-02-11T14:21:13.593Z,60.97
2023-02-11T14:22:23.825Z,56.92
2023-02-11T14:23:28.700Z,54.47
2023-02-11T14:26:40.628Z,53.50
2023-02-11T14:27:58.027Z,55.20
2023-02-11T14:29:22.899Z,62.53
2023-02-11T14:30:35.341Z,60.42
2023-02-11T14:32:30.302Z,60.85
2023-02-11T14:33:41.309Z,63.05
2023-02-11T14:34:52.890Z,53.05
2023-02-11T14:36:26.631Z,56.83
2023-02-11T14:38:07.713Z,54.83
2023-02-11T14:41:27.913Z,53.15
2023-02-11T14:42:31.701Z,57.15
2023-02-11T14:43:50.352Z,57.30
2023-02-11T14:44:57.628Z,64.18
2023-02-11T14:46:11.329Z,79.70
2023-02-11T14:51:41.685Z,57.85
2023-02-11T14:52:45.884Z,53.40
2023-02-11T14:53:53.709Z,50.80
2023-02-11T14:55:09.784Z,50.38
2023-02-11T14:56:24.928Z,49.03
2023-02-11T14:57:28.734Z,53.75
2023-02-11T14:58:34.678Z,53.60
2023-02-11T14:59:38.674Z,50.88
2023-02-11T15:01:30.288Z,56.65
2023-02-11T15:02:43.287Z,59.03
2023-02-11T15:03:50.725Z,116.35
2023-02-11T15:04:55.691Z,110.43
2023-02-11T15:06:12.533Z,93.60
2023-02-11T15:07:17.530Z,118.43
2023-02-11T15:08:22.299Z,81.30
2023-02-11T15:09:57.328Z,83.57
2023-02-11T15:11:04.290Z,74.45
2023-02-11T15:12:20.497Z,84.43
2023-02-11T15:13:31.583Z,53.63
2023-02-11T15:14:37.024Z,49.30
2023-02-11T15:15:42.382Z,50.42
2023-02-11T15:16:47.443Z,43.83